sensor_id;sensor_type;location;lat;lon;timestamp;P1;durP1;ratioP1;P2;durP2;ratioP2
73107;SDS011;61559;50.476;15.588;2023-04-08T00:02:24;37.50;;;19.30;;
73107;SDS011;61559;50.476;15.588;2023-04-08T00:04:55;43.60;;;21.70;;
73107;SDS011;61559;50.476;15.588;2023-04-08T00:07:28;38.80;;;20.00;;
73107;SDS011;61559;50.476;15.588;2023-04-08T00:09:59;40.40;;;19.30;;
73107;SDS011;61559;50.476;15.588;2023-04-08T00:12:30;41.00;;;20.00;;
73107;SDS011;61559;50.476;15.588;2023-04-08T00:15:02;40.20;;;19.80;;
73107;SDS011;61559;50.476;15.588;2023-04-08T00:17:34;36.60;;;18.60;;
73107;SDS011;61559;50.476;15.588;2023-04-08T00:20:06;38.50;;;18.40;;
73107;SDS011;61559;50.476;15.588;2023-04-08T00:22:38;35.70;;;17.60;;
73107;SDS011;61559;50.476;15.588;2023-04-08T00:25:09;36.10;;;17.10;;
73107;SDS011;61559;50.476;15.588;2023-04-08T00:27:41;40.10;;;17.60;;
73107;SDS011;61559;50.476;15.588;2023-04-08T00:30:12;34.30;;;17.10;;
73107;SDS011;61559;50.476;15.588;2023-04-08T00:32:43;32.10;;;16.70;;
73107;SDS011;61559;50.476;15.588;2023-04-08T00:35:14;34.70;;;17.10;;
73107;SDS011;61559;50.476;15.588;2023-04-08T00:37:46;35.80;;;17.50;;
73107;SDS011;61559;50.476;15.588;2023-04-08T00:40:18;33.80;;;17.20;;
73107;SDS011;61559;50.476;15.588;2023-04-08T00:42:49;33.60;;;16.90;;
73107;SDS011;61559;50.476;15.588;2023-04-08T00:45:20;34.50;;;17.70;;
73107;SDS011;61559;50.476;15.588;2023-04-08T00:47:51;32.90;;;18.10;;
73107;SDS011;61559;50.476;15.588;2023-04-08T00:52:52;33.90;;;16.40;;
73107;SDS011;61559;50.476;15.588;2023-04-08T00:55:23;34.50;;;17.10;;
73107;SDS011;61559;50.476;15.588;2023-04-08T00:57:54;32.90;;;17.20;;
73107;SDS011;61559;50.476;15.588;2023-04-08T01:00:26;36.30;;;18.10;;
73107;SDS011;61559;50.476;15.588;2023-04-08T01:03:01;32.70;;;16.50;;
73107;SDS011;61559;50.476;15.588;2023-04-08T01:05:41;35.60;;;18.10;;
73107;SDS011;61559;50.476;15.588;2023-04-08T01:08:22;34.70;;;17.40;;
73107;SDS011;61559;50.476;15.588;2023-04-08T01:11:00;37.40;;;18.30;;
73107;SDS011;61559;50.476;15.588;2023-04-08T01:13:33;34.20;;;17.40;;
73107;SDS011;61559;50.476;15.588;2023-04-08T01:16:09;34.40;;;17.10;;
73107;SDS011;61559;50.476;15.588;2023-04-08T01:18:41;31.00;;;15.80;;
73107;SDS011;61559;50.476;15.588;2023-04-08T01:21:15;32.60;;;16.70;;
73107;SDS011;61559;50.476;15.588;2023-04-08T01:23:52;35.60;;;18.10;;
73107;SDS011;61559;50.476;15.588;2023-04-08T01:26:27;31.90;;;17.40;;
73107;SDS011;61559;50.476;15.588;2023-04-08T01:28:59;32.60;;;16.50;;
73107;SDS011;61559;50.476;15.588;2023-04-08T01:31:33;34.20;;;17.30;;
73107;SDS011;61559;50.476;15.588;2023-04-08T01:34:07;37.20;;;18.30;;
73107;SDS011;61559;50.476;15.588;2023-04-08T01:36:42;32.90;;;16.50;;
73107;SDS011;61559;50.476;15.588;2023-04-08T01:39:15;33.60;;;17.60;;
73107;SDS011;61559;50.476;15.588;2023-04-08T01:41:48;31.10;;;16.40;;
73107;SDS011;61559;50.476;15.588;2023-04-08T01:44:22;30.70;;;16.60;;
73107;SDS011;61559;50.476;15.588;2023-04-08T01:46:54;34.60;;;18.20;;
73107;SDS011;61559;50.476;15.588;2023-04-08T01:49:26;38.40;;;18.30;;
73107;SDS011;61559;50.476;15.588;2023-04-08T01:51:59;34.30;;;17.00;;
73107;SDS011;61559;50.476;15.588;2023-04-08T01:54:30;36.20;;;19.40;;
73107;SDS011;61559;50.476;15.588;2023-04-08T01:57:03;38.20;;;19.50;;
73107;SDS011;61559;50.476;15.588;2023-04-08T01:59:36;34.60;;;17.70;;
73107;SDS011;61559;50.476;15.588;2023-04-08T02:02:10;40.60;;;20.30;;
73107;SDS011;61559;50.476;15.588;2023-04-08T02:04:43;36.40;;;17.40;;
73107;SDS011;61559;50.476;15.588;2023-04-08T02:07:15;34.70;;;17.90;;
73107;SDS011;61559;50.476;15.588;2023-04-08T02:09:46;38.60;;;18.30;;
73107;SDS011;61559;50.476;15.588;2023-04-08T02:12:18;40.40;;;19.30;;
73107;SDS011;61559;50.476;15.588;2023-04-08T02:17:20;53.10;;;23.50;;
73107;SDS011;61559;50.476;15.588;2023-04-08T02:19:59;43.40;;;20.10;;
73107;SDS011;61559;50.476;15.588;2023-04-08T02:22:37;37.10;;;19.40;;
73107;SDS011;61559;50.476;15.588;2023-04-08T02:25:13;36.70;;;17.70;;
73107;SDS011;61559;50.476;15.588;2023-04-08T02:27:48;36.00;;;18.10;;
73107;SDS011;61559;50.476;15.588;2023-04-08T02:30:22;31.30;;;16.00;;
73107;SDS011;61559;50.476;15.588;2023-04-08T02:32:56;30.10;;;15.90;;
73107;SDS011;61559;50.476;15.588;2023-04-08T02:35:30;34.80;;;16.10;;
73107;SDS011;61559;50.476;15.588;2023-04-08T02:38:01;35.90;;;17.40;;
73107;SDS011;61559;50.476;15.588;2023-04-08T02:40:32;31.20;;;15.90;;
73107;SDS011;61559;50.476;15.588;2023-04-08T02:43:04;31.90;;;16.50;;
73107;SDS011;61559;50.476;15.588;2023-04-08T02:45:37;35.50;;;17.80;;
73107;SDS011;61559;50.476;15.588;2023-04-08T02:48:09;32.10;;;16.40;;
73107;SDS011;61559;50.476;15.588;2023-04-08T02:53:10;28.20;;;14.80;;
73107;SDS011;61559;50.476;15.588;2023-04-08T02:55:41;30.50;;;15.60;;
73107;SDS011;61559;50.476;15.588;2023-04-08T02:58:13;34.70;;;17.10;;
73107;SDS011;61559;50.476;15.588;2023-04-08T03:03:14;28.00;;;13.80;;
73107;SDS011;61559;50.476;15.588;2023-04-08T03:05:46;26.40;;;14.30;;
73107;SDS011;61559;50.476;15.588;2023-04-08T03:08:17;31.90;;;15.80;;
73107;SDS011;61559;50.476;15.588;2023-04-08T03:10:48;33.90;;;16.80;;
73107;SDS011;61559;50.476;15.588;2023-04-08T03:13:19;29.70;;;16.00;;
73107;SDS011;61559;50.476;15.588;2023-04-08T03:15:50;28.10;;;15.40;;
73107;SDS011;61559;50.476;15.588;2023-04-08T03:18:21;31.80;;;16.80;;
73107;SDS011;61559;50.476;15.588;2023-04-08T03:20:52;29.30;;;15.50;;
73107;SDS011;61559;50.476;15.588;2023-04-08T03:23:23;29.50;;;15.60;;
73107;SDS011;61559;50.476;15.588;2023-04-08T03:25:54;30.50;;;15.90;;
73107;SDS011;61559;50.476;15.588;2023-04-08T03:30:55;27.40;;;12.10;;
73107;SDS011;61559;50.476;15.588;2023-04-08T03:33:27;30.90;;;14.90;;
73107;SDS011;61559;50.476;15.588;2023-04-08T03:35:59;27.70;;;14.10;;
73107;SDS011;61559;50.476;15.588;2023-04-08T03:38:30;30.60;;;14.30;;
73107;SDS011;61559;50.476;15.588;2023-04-08T03:41:01;29.00;;;14.80;;
73107;SDS011;61559;50.476;15.588;2023-04-08T03:46:05;30.00;;;14.10;;
73107;SDS011;61559;50.476;15.588;2023-04-08T03:48:36;32.10;;;16.60;;
73107;SDS011;61559;50.476;15.588;2023-04-08T03:51:08;27.70;;;14.20;;
73107;SDS011;61559;50.476;15.588;2023-04-08T03:56:08;26.50;;;14.20;;
73107;SDS011;61559;50.476;15.588;2023-04-08T03:58:40;31.40;;;16.10;;
73107;SDS011;61559;50.476;15.588;2023-04-08T04:03:41;30.10;;;14.50;;
73107;SDS011;61559;50.476;15.588;2023-04-08T04:06:13;28.80;;;14.70;;
73107;SDS011;61559;50.476;15.588;2023-04-08T04:08:43;29.70;;;14.90;;
73107;SDS011;61559;50.476;15.588;2023-04-08T04:11:15;31.80;;;15.10;;
73107;SDS011;61559;50.476;15.588;2023-04-08T04:13:46;32.00;;;15.70;;
73107;SDS011;61559;50.476;15.588;2023-04-08T04:16:17;28.30;;;14.30;;
73107;SDS011;61559;50.476;15.588;2023-04-08T04:18:48;16.30;;;8.70;;
73107;SDS011;61559;50.476;15.588;2023-04-08T04:21:21;19.00;;;10.40;;
73107;SDS011;61559;50.476;15.588;2023-04-08T04:23:52;25.20;;;12.60;;
73107;SDS011;61559;50.476;15.588;2023-04-08T04:26:23;27.10;;;14.20;;
73107;SDS011;61559;50.476;15.588;2023-04-08T04:28:54;32.00;;;14.50;;
73107;SDS011;61559;50.476;15.588;2023-04-08T04:31:25;31.50;;;14.90;;
73107;SDS011;61559;50.476;15.588;2023-04-08T04:36:26;26.00;;;11.30;;
73107;SDS011;61559;50.476;15.588;2023-04-08T04:38:58;31.50;;;15.00;;
73107;SDS011;61559;50.476;15.588;2023-04-08T04:41:29;25.50;;;13.60;;
73107;SDS011;61559;50.476;15.588;2023-04-08T04:44:02;23.20;;;10.80;;
73107;SDS011;61559;50.476;15.588;2023-04-08T04:49:03;9.00;;;4.80;;
73107;SDS011;61559;50.476;15.588;2023-04-08T04:51:34;13.60;;;6.20;;
73107;SDS011;61559;50.476;15.588;2023-04-08T04:54:05;7.20;;;3.50;;
73107;SDS011;61559;50.476;15.588;2023-04-08T04:59:06;2.60;;;1.60;;
73107;SDS011;61559;50.476;15.588;2023-04-08T05:04:08;2.40;;;1.40;;
73107;SDS011;61559;50.476;15.588;2023-04-08T05:06:39;1.80;;;1.20;;
73107;SDS011;61559;50.476;15.588;2023-04-08T05:09:10;2.50;;;1.30;;
73107;SDS011;61559;50.476;15.588;2023-04-08T05:14:11;1.20;;;0.80;;
73107;SDS011;61559;50.476;15.588;2023-04-08T05:16:42;1.20;;;0.80;;
73107;SDS011;61559;50.476;15.588;2023-04-08T05:19:14;2.40;;;1.00;;
73107;SDS011;61559;50.476;15.588;2023-04-08T05:21:45;1.80;;;0.60;;
73107;SDS011;61559;50.476;15.588;2023-04-08T05:24:16;1.00;;;0.60;;
73107;SDS011;61559;50.476;15.588;2023-04-08T05:26:47;0.80;;;0.60;;
73107;SDS011;61559;50.476;15.588;2023-04-08T05:29:20;2.90;;;1.00;;
73107;SDS011;61559;50.476;15.588;2023-04-08T05:31:51;1.90;;;0.90;;
73107;SDS011;61559;50.476;15.588;2023-04-08T05:34:23;1.40;;;0.80;;
73107;SDS011;61559;50.476;15.588;2023-04-08T05:36:54;1.10;;;0.90;;
73107;SDS011;61559;50.476;15.588;2023-04-08T05:39:25;1.60;;;0.80;;
73107;SDS011;61559;50.476;15.588;2023-04-08T05:41:56;1.30;;;1.00;;
73107;SDS011;61559;50.476;15.588;2023-04-08T05:46:57;0.90;;;0.70;;
73107;SDS011;61559;50.476;15.588;2023-04-08T05:49:29;1.10;;;0.80;;
73107;SDS011;61559;50.476;15.588;2023-04-08T05:52:01;1.20;;;0.90;;
73107;SDS011;61559;50.476;15.588;2023-04-08T05:54:32;2.00;;;1.10;;
73107;SDS011;61559;50.476;15.588;2023-04-08T05:57:03;1.60;;;1.00;;
73107;SDS011;61559;50.476;15.588;2023-04-08T05:59:37;2.50;;;1.10;;
73107;SDS011;61559;50.476;15.588;2023-04-08T06:04:38;1.80;;;1.00;;
73107;SDS011;61559;50.476;15.588;2023-04-08T06:07:09;1.40;;;1.00;;
73107;SDS011;61559;50.476;15.588;2023-04-08T06:12:12;2.80;;;1.50;;
73107;SDS011;61559;50.476;15.588;2023-04-08T06:17:12;2.50;;;1.30;;
73107;SDS011;61559;50.476;15.588;2023-04-08T06:22:13;2.20;;;1.30;;
73107;SDS011;61559;50.476;15.588;2023-04-08T06:24:44;2.40;;;1.50;;
73107;SDS011;61559;50.476;15.588;2023-04-08T06:27:16;2.70;;;1.50;;
73107;SDS011;61559;50.476;15.588;2023-04-08T06:29:48;3.30;;;1.70;;
73107;SDS011;61559;50.476;15.588;2023-04-08T06:32:19;3.00;;;1.40;;
73107;SDS011;61559;50.476;15.588;2023-04-08T06:34:50;4.10;;;1.90;;
73107;SDS011;61559;50.476;15.588;2023-04-08T06:39:51;3.80;;;2.10;;
73107;SDS011;61559;50.476;15.588;2023-04-08T06:42:22;4.90;;;2.60;;
73107;SDS011;61559;50.476;15.588;2023-04-08T06:44:54;3.70;;;2.10;;
73107;SDS011;61559;50.476;15.588;2023-04-08T06:47:25;3.70;;;2.20;;
73107;SDS011;61559;50.476;15.588;2023-04-08T06:49:56;9.20;;;4.40;;
73107;SDS011;61559;50.476;15.588;2023-04-08T06:52:28;4.00;;;2.20;;
73107;SDS011;61559;50.476;15.588;2023-04-08T06:54:59;7.20;;;3.80;;
73107;SDS011;61559;50.476;15.588;2023-04-08T06:57:30;3.80;;;1.90;;
73107;SDS011;61559;50.476;15.588;2023-04-08T07:00:01;4.10;;;2.60;;
73107;SDS011;61559;50.476;15.588;2023-04-08T07:02:32;16.40;;;10.30;;
73107;SDS011;61559;50.476;15.588;2023-04-08T07:05:05;4.00;;;2.40;;
73107;SDS011;61559;50.476;15.588;2023-04-08T07:07:36;5.70;;;3.20;;
73107;SDS011;61559;50.476;15.588;2023-04-08T07:12:38;4.00;;;1.90;;
73107;SDS011;61559;50.476;15.588;2023-04-08T07:15:10;5.20;;;2.10;;
73107;SDS011;61559;50.476;15.588;2023-04-08T07:17:41;4.10;;;2.10;;
73107;SDS011;61559;50.476;15.588;2023-04-08T07:20:12;3.30;;;2.10;;
73107;SDS011;61559;50.476;15.588;2023-04-08T07:22:44;3.30;;;1.80;;
73107;SDS011;61559;50.476;15.588;2023-04-08T07:27:44;4.80;;;2.00;;
73107;SDS011;61559;50.476;15.588;2023-04-08T07:30:16;4.70;;;2.70;;
73107;SDS011;61559;50.476;15.588;2023-04-08T07:32:47;4.10;;;2.40;;
73107;SDS011;61559;50.476;15.588;2023-04-08T07:35:19;4.00;;;2.60;;
73107;SDS011;61559;50.476;15.588;2023-04-08T07:37:52;4.40;;;2.50;;
73107;SDS011;61559;50.476;15.588;2023-04-08T07:40:24;5.70;;;2.60;;
73107;SDS011;61559;50.476;15.588;2023-04-08T07:45:25;4.50;;;2.20;;
73107;SDS011;61559;50.476;15.588;2023-04-08T07:47:56;6.10;;;2.80;;
73107;SDS011;61559;50.476;15.588;2023-04-08T07:50:29;7.30;;;3.40;;
73107;SDS011;61559;50.476;15.588;2023-04-08T07:55:33;7.10;;;3.50;;
73107;SDS011;61559;50.476;15.588;2023-04-08T07:58:04;7.60;;;3.70;;
73107;SDS011;61559;50.476;15.588;2023-04-08T08:00:36;6.00;;;3.10;;
73107;SDS011;61559;50.476;15.588;2023-04-08T08:03:08;5.00;;;2.70;;
73107;SDS011;61559;50.476;15.588;2023-04-08T08:08:08;4.90;;;2.80;;
73107;SDS011;61559;50.476;15.588;2023-04-08T08:10:39;8.70;;;4.90;;
73107;SDS011;61559;50.476;15.588;2023-04-08T08:15:43;6.50;;;3.00;;
73107;SDS011;61559;50.476;15.588;2023-04-08T08:20:44;6.80;;;3.40;;
73107;SDS011;61559;50.476;15.588;2023-04-08T08:23:15;7.10;;;3.70;;
73107;SDS011;61559;50.476;15.588;2023-04-08T08:25:46;8.90;;;4.60;;
73107;SDS011;61559;50.476;15.588;2023-04-08T08:28:17;6.60;;;4.00;;
73107;SDS011;61559;50.476;15.588;2023-04-08T08:30:48;5.30;;;2.80;;
73107;SDS011;61559;50.476;15.588;2023-04-08T08:33:19;8.30;;;3.10;;
73107;SDS011;61559;50.476;15.588;2023-04-08T08:35:51;6.10;;;3.00;;
73107;SDS011;61559;50.476;15.588;2023-04-08T08:38:22;9.90;;;4.40;;
73107;SDS011;61559;50.476;15.588;2023-04-08T08:40:54;5.80;;;3.40;;
73107;SDS011;61559;50.476;15.588;2023-04-08T08:43:26;5.70;;;3.60;;
73107;SDS011;61559;50.476;15.588;2023-04-08T08:46:00;6.90;;;3.90;;
73107;SDS011;61559;50.476;15.588;2023-04-08T08:48:31;7.80;;;4.30;;
73107;SDS011;61559;50.476;15.588;2023-04-08T08:51:08;7.20;;;3.10;;
73107;SDS011;61559;50.476;15.588;2023-04-08T08:53:39;11.50;;;6.30;;
73107;SDS011;61559;50.476;15.588;2023-04-08T08:56:12;9.40;;;4.40;;
73107;SDS011;61559;50.476;15.588;2023-04-08T08:58:46;9.20;;;4.50;;
73107;SDS011;61559;50.476;15.588;2023-04-08T09:06:40;6.70;;;3.30;;
73107;SDS011;61559;50.476;15.588;2023-04-08T09:09:11;8.70;;;3.70;;
73107;SDS011;61559;50.476;15.588;2023-04-08T09:11:44;5.20;;;3.50;;
73107;SDS011;61559;50.476;15.588;2023-04-08T09:14:19;8.30;;;4.20;;
73107;SDS011;61559;50.476;15.588;2023-04-08T09:16:52;9.10;;;4.10;;
73107;SDS011;61559;50.476;15.588;2023-04-08T09:25:01;8.50;;;4.50;;
73107;SDS011;61559;50.476;15.588;2023-04-08T09:27:53;8.00;;;3.80;;
73107;SDS011;61559;50.476;15.588;2023-04-08T09:30:25;9.30;;;5.30;;
73107;SDS011;61559;50.476;15.588;2023-04-08T09:32:57;10.80;;;6.00;;
73107;SDS011;61559;50.476;15.588;2023-04-08T09:35:28;10.50;;;5.50;;
73107;SDS011;61559;50.476;15.588;2023-04-08T09:37:59;11.40;;;6.00;;
73107;SDS011;61559;50.476;15.588;2023-04-08T09:43:03;8.80;;;4.80;;
73107;SDS011;61559;50.476;15.588;2023-04-08T09:45:37;11.30;;;6.00;;
73107;SDS011;61559;50.476;15.588;2023-04-08T09:48:12;11.50;;;6.20;;
73107;SDS011;61559;50.476;15.588;2023-04-08T09:50:51;12.80;;;6.10;;
73107;SDS011;61559;50.476;15.588;2023-04-08T09:53:25;51.70;;;18.90;;
73107;SDS011;61559;50.476;15.588;2023-04-08T09:56:04;43.10;;;18.20;;
73107;SDS011;61559;50.476;15.588;2023-04-08T10:01:12;16.10;;;7.20;;
73107;SDS011;61559;50.476;15.588;2023-04-08T10:03:47;12.90;;;7.10;;
73107;SDS011;61559;50.476;15.588;2023-04-08T10:08:56;11.30;;;6.50;;
73107;SDS011;61559;50.476;15.588;2023-04-08T10:11:30;13.80;;;6.20;;
73107;SDS011;61559;50.476;15.588;2023-04-08T10:14:01;13.10;;;6.60;;
73107;SDS011;61559;50.476;15.588;2023-04-08T10:16:32;15.90;;;7.40;;
73107;SDS011;61559;50.476;15.588;2023-04-08T10:19:04;13.40;;;7.00;;
73107;SDS011;61559;50.476;15.588;2023-04-08T10:25:29;9.10;;;5.80;;
73107;SDS011;61559;50.476;15.588;2023-04-08T10:28:22;13.40;;;7.00;;
73107;SDS011;61559;50.476;15.588;2023-04-08T10:30:56;10.90;;;4.70;;
73107;SDS011;61559;50.476;15.588;2023-04-08T10:33:31;13.40;;;7.20;;
73107;SDS011;61559;50.476;15.588;2023-04-08T10:36:15;13.70;;;7.00;;
73107;SDS011;61559;50.476;15.588;2023-04-08T10:41:17;11.70;;;5.10;;
73107;SDS011;61559;50.476;15.588;2023-04-08T10:43:54;10.60;;;5.60;;
73107;SDS011;61559;50.476;15.588;2023-04-08T10:46:27;12.60;;;6.50;;
73107;SDS011;61559;50.476;15.588;2023-04-08T10:49:05;13.00;;;6.60;;
73107;SDS011;61559;50.476;15.588;2023-04-08T10:51:36;12.10;;;7.50;;
73107;SDS011;61559;50.476;15.588;2023-04-08T10:54:08;13.40;;;6.20;;
73107;SDS011;61559;50.476;15.588;2023-04-08T10:56:44;10.80;;;5.80;;
73107;SDS011;61559;50.476;15.588;2023-04-08T10:59:16;11.00;;;6.00;;
73107;SDS011;61559;50.476;15.588;2023-04-08T11:01:57;14.90;;;7.50;;
73107;SDS011;61559;50.476;15.588;2023-04-08T11:04:29;10.50;;;5.60;;
73107;SDS011;61559;50.476;15.588;2023-04-08T11:07:01;12.20;;;6.80;;
73107;SDS011;61559;50.476;15.588;2023-04-08T11:09:35;16.00;;;7.60;;
73107;SDS011;61559;50.476;15.588;2023-04-08T11:12:08;12.10;;;6.90;;
73107;SDS011;61559;50.476;15.588;2023-04-08T11:14:43;10.70;;;6.50;;
73107;SDS011;61559;50.476;15.588;2023-04-08T11:17:16;16.00;;;7.90;;
73107;SDS011;61559;50.476;15.588;2023-04-08T11:19:48;13.50;;;6.70;;
73107;SDS011;61559;50.476;15.588;2023-04-08T11:22:20;12.60;;;6.50;;
73107;SDS011;61559;50.476;15.588;2023-04-08T11:24:52;12.00;;;6.30;;
73107;SDS011;61559;50.476;15.588;2023-04-08T11:27:24;12.30;;;6.80;;
73107;SDS011;61559;50.476;15.588;2023-04-08T11:29:55;10.60;;;6.40;;
73107;SDS011;61559;50.476;15.588;2023-04-08T11:32:27;13.30;;;7.10;;
73107;SDS011;61559;50.476;15.588;2023-04-08T11:34:59;11.60;;;6.50;;
73107;SDS011;61559;50.476;15.588;2023-04-08T11:37:39;12.70;;;6.50;;
73107;SDS011;61559;50.476;15.588;2023-04-08T11:40:12;11.80;;;7.50;;
73107;SDS011;61559;50.476;15.588;2023-04-08T11:42:48;13.00;;;6.70;;
73107;SDS011;61559;50.476;15.588;2023-04-08T11:45:20;12.10;;;6.60;;
73107;SDS011;61559;50.476;15.588;2023-04-08T11:47:51;10.00;;;4.90;;
73107;SDS011;61559;50.476;15.588;2023-04-08T11:52:52;14.00;;;7.20;;
73107;SDS011;61559;50.476;15.588;2023-04-08T11:55:24;11.00;;;6.50;;
73107;SDS011;61559;50.476;15.588;2023-04-08T11:58:00;8.80;;;5.40;;
73107;SDS011;61559;50.476;15.588;2023-04-08T12:00:33;11.50;;;6.10;;
73107;SDS011;61559;50.476;15.588;2023-04-08T12:03:04;10.90;;;6.70;;
73107;SDS011;61559;50.476;15.588;2023-04-08T12:05:36;10.20;;;5.60;;
73107;SDS011;61559;50.476;15.588;2023-04-08T12:10:36;10.30;;;5.90;;
73107;SDS011;61559;50.476;15.588;2023-04-08T12:13:07;10.70;;;6.30;;
73107;SDS011;61559;50.476;15.588;2023-04-08T12:15:38;11.50;;;6.90;;
73107;SDS011;61559;50.476;15.588;2023-04-08T12:18:09;14.60;;;7.60;;
73107;SDS011;61559;50.476;15.588;2023-04-08T12:20:40;13.90;;;7.40;;
73107;SDS011;61559;50.476;15.588;2023-04-08T12:23:12;14.30;;;7.50;;
73107;SDS011;61559;50.476;15.588;2023-04-08T12:25:43;12.10;;;6.60;;
73107;SDS011;61559;50.476;15.588;2023-04-08T12:33:13;9.30;;;5.40;;
73107;SDS011;61559;50.476;15.588;2023-04-08T12:38:14;10.30;;;5.70;;
73107;SDS011;61559;50.476;15.588;2023-04-08T12:40:45;8.60;;;4.50;;
73107;SDS011;61559;50.476;15.588;2023-04-08T12:43:17;9.60;;;5.60;;
73107;SDS011;61559;50.476;15.588;2023-04-08T12:45:49;10.20;;;6.20;;
73107;SDS011;61559;50.476;15.588;2023-04-08T12:48:20;9.00;;;4.60;;
73107;SDS011;61559;50.476;15.588;2023-04-08T12:50:51;9.70;;;5.20;;
73107;SDS011;61559;50.476;15.588;2023-04-08T12:53:22;8.90;;;4.90;;
73107;SDS011;61559;50.476;15.588;2023-04-08T12:55:53;8.30;;;5.10;;
73107;SDS011;61559;50.476;15.588;2023-04-08T12:58:24;7.00;;;4.60;;
73107;SDS011;61559;50.476;15.588;2023-04-08T13:00:56;9.60;;;5.70;;
73107;SDS011;61559;50.476;15.588;2023-04-08T13:05:59;9.40;;;4.50;;
73107;SDS011;61559;50.476;15.588;2023-04-08T13:08:30;10.20;;;6.30;;
73107;SDS011;61559;50.476;15.588;2023-04-08T13:11:01;9.40;;;5.50;;
73107;SDS011;61559;50.476;15.588;2023-04-08T13:13:32;10.80;;;5.60;;
73107;SDS011;61559;50.476;15.588;2023-04-08T13:18:33;8.70;;;4.70;;
73107;SDS011;61559;50.476;15.588;2023-04-08T13:21:05;9.90;;;5.10;;
73107;SDS011;61559;50.476;15.588;2023-04-08T13:23:36;10.10;;;5.00;;
73107;SDS011;61559;50.476;15.588;2023-04-08T13:28:36;9.60;;;4.80;;
73107;SDS011;61559;50.476;15.588;2023-04-08T13:31:24;7.30;;;3.90;;
73107;SDS011;61559;50.476;15.588;2023-04-08T13:33:55;9.20;;;5.90;;
73107;SDS011;61559;50.476;15.588;2023-04-08T13:36:26;10.20;;;5.60;;
73107;SDS011;61559;50.476;15.588;2023-04-08T13:38:58;8.90;;;5.70;;
73107;SDS011;61559;50.476;15.588;2023-04-08T13:41:30;9.90;;;5.20;;
73107;SDS011;61559;50.476;15.588;2023-04-08T13:44:02;11.10;;;6.40;;
73107;SDS011;61559;50.476;15.588;2023-04-08T13:46:34;10.90;;;6.60;;
73107;SDS011;61559;50.476;15.588;2023-04-08T13:49:05;11.60;;;7.00;;
73107;SDS011;61559;50.476;15.588;2023-04-08T13:51:36;13.10;;;6.50;;
73107;SDS011;61559;50.476;15.588;2023-04-08T13:54:07;13.80;;;7.10;;
73107;SDS011;61559;50.476;15.588;2023-04-08T13:56:38;11.90;;;7.00;;
73107;SDS011;61559;50.476;15.588;2023-04-08T13:59:09;10.70;;;6.40;;
73107;SDS011;61559;50.476;15.588;2023-04-08T14:06:39;11.50;;;5.70;;
73107;SDS011;61559;50.476;15.588;2023-04-08T14:09:10;11.30;;;6.70;;
73107;SDS011;61559;50.476;15.588;2023-04-08T14:14:11;9.50;;;5.10;;
73107;SDS011;61559;50.476;15.588;2023-04-08T14:16:45;10.20;;;5.70;;
73107;SDS011;61559;50.476;15.588;2023-04-08T14:19:16;11.30;;;6.60;;
73107;SDS011;61559;50.476;15.588;2023-04-08T14:21:47;13.10;;;6.30;;
73107;SDS011;61559;50.476;15.588;2023-04-08T14:24:19;11.40;;;6.20;;
73107;SDS011;61559;50.476;15.588;2023-04-08T14:26:50;12.90;;;6.80;;
73107;SDS011;61559;50.476;15.588;2023-04-08T14:29:21;9.00;;;5.60;;
73107;SDS011;61559;50.476;15.588;2023-04-08T14:31:55;11.80;;;7.10;;
73107;SDS011;61559;50.476;15.588;2023-04-08T14:34:26;9.60;;;5.40;;
73107;SDS011;61559;50.476;15.588;2023-04-08T14:36:57;12.30;;;7.50;;
73107;SDS011;61559;50.476;15.588;2023-04-08T14:41:57;13.00;;;6.60;;
73107;SDS011;61559;50.476;15.588;2023-04-08T14:44:28;8.70;;;5.10;;
73107;SDS011;61559;50.476;15.588;2023-04-08T14:46:59;10.10;;;6.40;;
73107;SDS011;61559;50.476;15.588;2023-04-08T14:49:31;10.70;;;6.40;;
73107;SDS011;61559;50.476;15.588;2023-04-08T14:52:02;8.90;;;6.30;;
73107;SDS011;61559;50.476;15.588;2023-04-08T14:54:33;10.50;;;6.10;;
73107;SDS011;61559;50.476;15.588;2023-04-08T14:57:04;7.00;;;4.50;;
73107;SDS011;61559;50.476;15.588;2023-04-08T14:59:35;10.00;;;6.10;;
73107;SDS011;61559;50.476;15.588;2023-04-08T15:02:06;9.80;;;6.00;;
73107;SDS011;61559;50.476;15.588;2023-04-08T15:04:37;8.70;;;5.60;;
73107;SDS011;61559;50.476;15.588;2023-04-08T15:07:08;9.90;;;5.70;;
73107;SDS011;61559;50.476;15.588;2023-04-08T15:09:39;8.50;;;5.60;;
73107;SDS011;61559;50.476;15.588;2023-04-08T15:12:10;8.70;;;5.30;;
73107;SDS011;61559;50.476;15.588;2023-04-08T15:14:42;10.50;;;6.40;;
73107;SDS011;61559;50.476;15.588;2023-04-08T15:17:12;10.10;;;6.70;;
73107;SDS011;61559;50.476;15.588;2023-04-08T15:19:44;10.80;;;7.10;;
73107;SDS011;61559;50.476;15.588;2023-04-08T15:22:15;10.80;;;7.10;;
73107;SDS011;61559;50.476;15.588;2023-04-08T15:24:46;9.90;;;6.00;;
73107;SDS011;61559;50.476;15.588;2023-04-08T15:27:17;8.20;;;5.30;;
73107;SDS011;61559;50.476;15.588;2023-04-08T15:29:48;11.00;;;7.40;;
73107;SDS011;61559;50.476;15.588;2023-04-08T15:32:20;11.10;;;5.80;;
73107;SDS011;61559;50.476;15.588;2023-04-08T15:34:51;12.20;;;7.50;;
73107;SDS011;61559;50.476;15.588;2023-04-08T15:37:22;11.70;;;6.90;;
73107;SDS011;61559;50.476;15.588;2023-04-08T15:39:53;8.80;;;5.90;;
73107;SDS011;61559;50.476;15.588;2023-04-08T15:42:24;10.70;;;6.50;;
73107;SDS011;61559;50.476;15.588;2023-04-08T15:44:55;12.40;;;7.70;;
73107;SDS011;61559;50.476;15.588;2023-04-08T15:47:26;11.10;;;6.70;;
73107;SDS011;61559;50.476;15.588;2023-04-08T15:49:57;8.50;;;5.70;;
73107;SDS011;61559;50.476;15.588;2023-04-08T15:52:30;10.90;;;6.80;;
73107;SDS011;61559;50.476;15.588;2023-04-08T15:55:02;11.20;;;6.80;;
73107;SDS011;61559;50.476;15.588;2023-04-08T15:57:35;11.00;;;7.10;;
73107;SDS011;61559;50.476;15.588;2023-04-08T16:00:10;9.60;;;5.70;;
73107;SDS011;61559;50.476;15.588;2023-04-08T16:02:43;11.50;;;6.70;;
73107;SDS011;61559;50.476;15.588;2023-04-08T16:05:15;7.30;;;3.70;;
73107;SDS011;61559;50.476;15.588;2023-04-08T16:07:46;12.20;;;7.20;;
73107;SDS011;61559;50.476;15.588;2023-04-08T16:10:17;10.40;;;5.90;;
73107;SDS011;61559;50.476;15.588;2023-04-08T16:12:48;12.20;;;7.50;;
73107;SDS011;61559;50.476;15.588;2023-04-08T16:15:20;9.30;;;6.60;;
73107;SDS011;61559;50.476;15.588;2023-04-08T16:17:51;10.10;;;6.10;;
73107;SDS011;61559;50.476;15.588;2023-04-08T16:20:22;10.90;;;7.30;;
73107;SDS011;61559;50.476;15.588;2023-04-08T16:22:54;8.90;;;5.90;;
73107;SDS011;61559;50.476;15.588;2023-04-08T16:25:25;9.30;;;6.00;;
73107;SDS011;61559;50.476;15.588;2023-04-08T16:27:56;11.70;;;6.90;;
73107;SDS011;61559;50.476;15.588;2023-04-08T16:30:27;11.70;;;6.50;;
73107;SDS011;61559;50.476;15.588;2023-04-08T16:32:59;10.70;;;6.70;;
73107;SDS011;61559;50.476;15.588;2023-04-08T16:35:30;13.80;;;7.40;;
73107;SDS011;61559;50.476;15.588;2023-04-08T16:38:02;14.30;;;7.00;;
73107;SDS011;61559;50.476;15.588;2023-04-08T16:40:34;13.20;;;7.30;;
73107;SDS011;61559;50.476;15.588;2023-04-08T16:43:06;11.50;;;6.60;;
73107;SDS011;61559;50.476;15.588;2023-04-08T16:45:38;11.00;;;7.00;;
73107;SDS011;61559;50.476;15.588;2023-04-08T16:48:10;10.60;;;5.80;;
73107;SDS011;61559;50.476;15.588;2023-04-08T16:50:41;13.70;;;7.30;;
73107;SDS011;61559;50.476;15.588;2023-04-08T16:53:12;12.40;;;7.10;;